createdAt,value
2023-03-22T00:01:29.289Z,8.37
2023-03-22T00:03:58.702Z,8.39
2023-03-22T00:06:27.882Z,8.39
2023-03-22T00:08:56.970Z,8.40
2023-03-22T00:11:26.573Z,8.40
2023-03-22T00:13:55.559Z,8.41
2023-03-22T00:16:24.534Z,8.42
2023-03-22T00:18:53.639Z,8.43
2023-03-22T00:21:23.366Z,8.44
2023-03-22T00:23:52.571Z,8.44
2023-03-22T00:26:21.173Z,8.45
2023-03-22T00:28:50.499Z,8.45
2023-03-22T00:31:20.294Z,8.45
2023-03-22T00:33:50.294Z,8.47
2023-03-22T00:36:19.074Z,8.48
2023-03-22T00:38:52.365Z,8.49
2023-03-22T00:41:23.267Z,8.49
2023-03-22T00:43:52.595Z,8.48
2023-03-22T00:46:22.271Z,8.46
2023-03-22T00:48:51.018Z,8.44
2023-03-22T00:51:20.226Z,8.43
2023-03-22T00:53:54.410Z,8.40
2023-03-22T00:56:26.069Z,8.39
2023-03-22T00:59:24.661Z,8.39
2023-03-22T01:01:53.237Z,8.37
2023-03-22T01:04:26.486Z,8.36
2023-03-22T01:06:59.828Z,8.35
2023-03-22T01:09:31.389Z,8.35
2023-03-22T01:12:02.230Z,8.35
2023-03-22T01:14:32.220Z,8.35
2023-03-22T01:17:01.054Z,8.35
2023-03-22T01:19:29.904Z,8.35
2023-03-22T01:21:58.576Z,8.35
2023-03-22T01:24:27.680Z,8.36
2023-03-22T01:26:56.886Z,8.35
2023-03-22T01:29:26.088Z,8.35
2023-03-22T01:31:54.966Z,8.34
2023-03-22T01:34:23.847Z,8.32
2023-03-22T01:36:52.941Z,8.31
2023-03-22T01:39:22.042Z,8.31
2023-03-22T01:41:52.373Z,8.31
2023-03-22T01:44:23.057Z,8.31
2023-03-22T01:46:53.020Z,8.32
2023-03-22T01:49:31.818Z,8.33
2023-03-22T01:52:07.521Z,8.33
2023-03-22T01:55:12.990Z,8.33
2023-03-22T01:57:46.128Z,8.33
2023-03-22T02:00:19.210Z,8.34
2023-03-22T02:03:03.612Z,8.35
2023-03-22T02:05:37.690Z,8.36
2023-03-22T02:08:07.188Z,8.37
2023-03-22T02:10:52.170Z,8.36
2023-03-22T02:13:29.241Z,8.37
2023-03-22T02:16:35.411Z,8.37
2023-03-22T02:19:31.265Z,8.37
2023-03-22T02:22:30.423Z,8.38
2023-03-22T02:25:21.229Z,8.37
2023-03-22T02:27:52.673Z,8.38
2023-03-22T02:30:43.063Z,8.38
2023-03-22T02:33:45.743Z,8.40
2023-03-22T02:36:32.957Z,8.42
2023-03-22T02:39:27.046Z,8.44
2023-03-22T02:42:21.642Z,8.48
2023-03-22T02:45:02.623Z,8.49
2023-03-22T02:47:38.996Z,8.52
2023-03-22T02:50:20.568Z,8.54
2023-03-22T02:52:54.690Z,8.56
2023-03-22T02:55:38.026Z,8.58
2023-03-22T02:58:15.601Z,8.60
2023-03-22T03:00:49.868Z,8.61
2023-03-22T03:03:19.942Z,8.63
2023-03-22T03:05:55.119Z,8.63
2023-03-22T03:08:24.489Z,8.64
2023-03-22T03:10:54.414Z,8.65
2023-03-22T03:13:23.480Z,8.66
2023-03-22T03:15:57.500Z,8.68
2023-03-22T03:18:32.947Z,8.69
2023-03-22T03:21:17.522Z,8.69
2023-03-22T03:24:21.940Z,8.70
2023-03-22T03:26:58.765Z,8.71
2023-03-22T03:29:32.704Z,8.72
2023-03-22T03:32:16.986Z,8.74
2023-03-22T03:34:55.626Z,8.75
2023-03-22T03:37:29.514Z,8.77
2023-03-22T03:40:11.481Z,8.78
2023-03-22T03:42:44.255Z,8.81
2023-03-22T03:45:14.304Z,8.82
2023-03-22T03:47:47.626Z,8.82
2023-03-22T03:50:16.782Z,8.82
2023-03-22T03:52:45.769Z,8.82
2023-03-22T03:55:14.575Z,8.82
2023-03-22T03:57:43.451Z,8.82
2023-03-22T04:00:17.245Z,8.82
2023-03-22T04:02:55.484Z,8.82
2023-03-22T04:05:45.179Z,8.84
2023-03-22T04:08:14.043Z,8.86
2023-03-22T04:10:42.624Z,8.88
2023-03-22T04:13:11.533Z,8.87
2023-03-22T04:15:40.804Z,8.86
2023-03-22T04:18:11.693Z,8.84
2023-03-22T04:20:42.093Z,8.82
2023-03-22T04:23:11.459Z,8.80
2023-03-22T04:25:40.678Z,8.77
2023-03-22T04:28:14.161Z,8.75
2023-03-22T04:30:46.258Z,8.70
2023-03-22T04:33:39.667Z,8.65
2023-03-22T04:36:18.960Z,8.62
2023-03-22T04:39:06.353Z,8.58
2023-03-22T04:41:36.308Z,8.54
2023-03-22T04:44:07.123Z,8.52
2023-03-22T04:46:38.561Z,8.49
2023-03-22T04:49:08.276Z,8.46
2023-03-22T04:51:39.614Z,8.45
2023-03-22T04:54:43.932Z,8.43
2023-03-22T04:57:14.160Z,8.41
2023-03-22T04:59:45.914Z,8.39
2023-03-22T05:02:14.910Z,8.37
2023-03-22T05:04:45.924Z,8.34
2023-03-22T05:07:29.989Z,8.31
2023-03-22T05:10:01.756Z,8.29
2023-03-22T05:12:31.055Z,8.27
2023-03-22T05:15:15.938Z,8.26
2023-03-22T05:17:45.315Z,8.24
2023-03-22T05:20:15.237Z,8.23
2023-03-22T05:22:45.763Z,8.23
2023-03-22T05:25:14.439Z,8.22
2023-03-22T05:27:45.488Z,8.22
2023-03-22T05:30:35.414Z,8.21
2023-03-22T05:33:10.196Z,8.21
2023-03-22T05:35:44.164Z,8.21
2023-03-22T05:38:13.204Z,8.22
2023-03-22T05:40:46.815Z,8.25
2023-03-22T05:43:16.007Z,8.29
2023-03-22T05:45:48.464Z,8.33
2023-03-22T05:48:49.834Z,8.37
2023-03-22T05:51:20.361Z,8.40
2023-03-22T05:53:52.926Z,8.45
2023-03-22T05:56:25.259Z,8.51
2023-03-22T05:59:02.391Z,8.55
2023-03-22T06:01:34.365Z,8.59
2023-03-22T06:04:16.395Z,8.63
2023-03-22T06:06:54.369Z,8.67
2023-03-22T06:09:56.123Z,8.71
2023-03-22T06:12:28.833Z,8.76
2023-03-22T06:15:04.122Z,8.81
2023-03-22T06:17:54.018Z,8.87
2023-03-22T06:20:26.077Z,8.91
2023-03-22T06:23:01.227Z,8.94
2023-03-22T06:25:30.005Z,8.98
2023-03-22T06:27:59.436Z,9.04
2023-03-22T06:30:28.731Z,9.10
2023-03-22T06:33:11.327Z,9.16
2023-03-22T06:35:42.264Z,9.24
2023-03-22T06:38:12.384Z,9.40
2023-03-22T06:40:41.526Z,9.57
2023-03-22T06:43:10.652Z,9.76
2023-03-22T06:45:40.929Z,9.94
2023-03-22T06:48:09.755Z,10.13
2023-03-22T06:50:54.459Z,10.33
2023-03-22T06:53:30.613Z,10.47
2023-03-22T06:55:59.608Z,10.56
2023-03-22T06:58:28.984Z,10.63
2023-03-22T07:00:58.668Z,10.69
2023-03-22T07:03:28.228Z,10.75
2023-03-22T07:06:08.390Z,10.80
2023-03-22T07:08:39.996Z,10.84
2023-03-22T07:11:09.409Z,10.89
2023-03-22T07:13:39.301Z,10.95
2023-03-22T07:16:12.260Z,11.01
2023-03-22T07:18:51.540Z,11.09
2023-03-22T07:21:20.548Z,11.18
2023-03-22T07:23:53.533Z,11.29
2023-03-22T07:26:22.810Z,11.38
2023-03-22T07:28:51.839Z,11.45
2023-03-22T07:31:21.845Z,11.52
2023-03-22T07:34:07.635Z,11.63
2023-03-22T07:36:43.171Z,11.76
2023-03-22T07:39:13.028Z,11.89
2023-03-22T07:41:45.363Z,12.01
2023-03-22T07:44:37.603Z,12.11
2023-03-22T07:47:12.119Z,12.19
2023-03-22T07:49:48.477Z,12.25
2023-03-22T07:52:21.562Z,12.31
2023-03-22T07:54:51.577Z,12.38
2023-03-22T07:57:20.691Z,12.45
2023-03-22T07:59:54.894Z,12.54
2023-03-22T08:02:25.336Z,12.66
2023-03-22T08:04:56.587Z,12.78
2023-03-22T08:07:46.277Z,12.92
2023-03-22T08:10:16.250Z,13.04
2023-03-22T08:12:45.255Z,13.15
2023-03-22T08:15:24.494Z,13.25
2023-03-22T08:17:53.375Z,13.35
2023-03-22T08:20:32.312Z,13.46
2023-03-22T08:23:03.769Z,13.57
2023-03-22T08:26:05.939Z,13.72
2023-03-22T08:28:37.784Z,13.79
2023-03-22T08:31:15.396Z,13.83
2023-03-22T08:33:45.499Z,13.93
2023-03-22T08:36:17.969Z,14.02
2023-03-22T08:38:53.941Z,14.13
2023-03-22T08:41:27.239Z,14.24
2023-03-22T08:43:56.729Z,14.36
2023-03-22T08:46:25.354Z,14.45
2023-03-22T08:48:54.401Z,14.53
2023-03-22T08:51:32.001Z,14.59
2023-03-22T08:54:14.414Z,14.61
2023-03-22T08:56:56.526Z,14.66
2023-03-22T08:59:37.790Z,14.72
2023-03-22T09:02:27.226Z,14.77
2023-03-22T09:04:57.081Z,14.81
2023-03-22T09:07:26.373Z,14.86
2023-03-22T09:10:20.872Z,14.93
2023-03-22T09:12:49.965Z,14.98
2023-03-22T09:15:19.157Z,15.01
2023-03-22T09:17:51.222Z,15.02
2023-03-22T09:20:25.756Z,15.03
2023-03-22T09:22:55.755Z,15.05
2023-03-22T09:25:24.847Z,15.11
2023-03-22T09:27:54.054Z,15.20
2023-03-22T09:30:22.745Z,15.27
2023-03-22T09:32:51.940Z,15.34
2023-03-22T09:35:22.249Z,15.44
2023-03-22T09:38:06.552Z,15.54
2023-03-22T09:40:36.888Z,15.63
2023-03-22T09:43:08.428Z,15.73
2023-03-22T09:45:42.316Z,15.85
2023-03-22T09:48:20.168Z,15.93
2023-03-22T09:50:54.163Z,15.99
2023-03-22T09:53:26.004Z,16.00
2023-03-22T09:55:59.761Z,16.07
2023-03-22T09:58:57.213Z,16.13
2023-03-22T10:01:57.499Z,16.18
2023-03-22T10:04:55.837Z,16.20
2023-03-22T10:07:37.937Z,16.26
2023-03-22T10:10:19.302Z,16.33
2023-03-22T10:13:01.009Z,16.37
2023-03-22T10:15:40.908Z,16.38
2023-03-22T10:18:17.109Z,16.38
2023-03-22T10:21:04.603Z,16.41
2023-03-22T10:23:57.478Z,16.45
2023-03-22T10:26:40.042Z,16.45
2023-03-22T10:29:16.054Z,16.48
2023-03-22T10:31:46.526Z,16.53
2023-03-22T10:34:22.866Z,16.60
2023-03-22T10:36:53.389Z,16.68
2023-03-22T10:39:27.456Z,16.76
2023-03-22T10:41:58.216Z,16.83
2023-03-22T10:44:29.573Z,16.86
2023-03-22T10:47:00.678Z,16.92
2023-03-22T10:49:33.113Z,16.98
2023-03-22T10:52:30.968Z,17.05
2023-03-22T10:55:03.693Z,17.10
2023-03-22T10:57:33.250Z,17.13
2023-03-22T11:00:08.789Z,17.18
2023-03-22T11:02:46.600Z,17.23
2023-03-22T11:05:30.547Z,17.27
2023-03-22T11:07:59.749Z,17.37
2023-03-22T11:10:33.103Z,17.46
2023-03-22T11:13:07.955Z,17.54
2023-03-22T11:15:44.056Z,17.62
2023-03-22T11:18:16.212Z,17.68
2023-03-22T11:20:57.425Z,17.75
2023-03-22T11:23:26.567Z,17.79
2023-03-22T11:25:57.701Z,17.80
2023-03-22T11:28:36.359Z,17.88
2023-03-22T11:31:13.705Z,17.96
2023-03-22T11:34:00.637Z,18.01
2023-03-22T11:36:30.216Z,18.01
2023-03-22T11:39:01.644Z,18.05
2023-03-22T11:41:32.733Z,18.06
2023-03-22T11:44:05.349Z,18.02
2023-03-22T11:46:36.569Z,18.06
2023-03-22T11:49:10.086Z,18.11
2023-03-22T11:51:40.187Z,18.15
2023-03-22T11:54:16.407Z,18.16
2023-03-22T11:56:47.678Z,18.19
2023-03-22T12:08:10.180Z,18.21
2023-03-22T12:10:41.763Z,18.17
2023-03-22T12:13:17.014Z,18.20
2023-03-22T12:15:50.081Z,18.23
2023-03-22T12:18:39.555Z,18.26
2023-03-22T12:21:11.333Z,18.31
2023-03-22T12:23:40.780Z,18.35
2023-03-22T12:26:13.252Z,18.37
2023-03-22T12:28:54.639Z,18.40
2023-03-22T12:31:43.075Z,18.48
2023-03-22T12:34:20.249Z,18.50
2023-03-22T12:36:55.516Z,18.46
2023-03-22T12:39:35.872Z,18.44
2023-03-22T12:42:47.937Z,18.48
2023-03-22T12:45:29.059Z,18.55
2023-03-22T12:48:11.198Z,18.59
2023-03-22T12:51:13.528Z,18.62
2023-03-22T12:53:49.307Z,18.65
2023-03-22T12:56:25.507Z,18.63
2023-03-22T12:59:02.184Z,18.59
2023-03-22T13:01:30.988Z,18.53
2023-03-22T13:04:00.613Z,18.50
2023-03-22T13:06:56.881Z,18.46
2023-03-22T13:09:29.228Z,18.43
2023-03-22T13:12:19.178Z,18.42
2023-03-22T13:14:51.264Z,18.43
2023-03-22T13:17:24.981Z,18.48
2023-03-22T13:19:56.440Z,18.53
2023-03-22T13:22:30.453Z,18.57
2023-03-22T13:25:09.047Z,18.58
2023-03-22T13:27:51.263Z,18.58
2023-03-22T13:30:27.459Z,18.57
2023-03-22T13:33:10.509Z,18.52
2023-03-22T13:36:01.198Z,18.54
2023-03-22T13:38:34.790Z,18.54
2023-03-22T13:41:20.019Z,18.51
2023-03-22T13:43:52.919Z,18.51
2023-03-22T13:46:22.458Z,18.55
2023-03-22T13:48:55.414Z,18.60
2023-03-22T13:51:30.628Z,18.65
2023-03-22T13:54:14.672Z,18.70
2023-03-22T13:57:01.533Z,18.73
2023-03-22T14:00:13.384Z,18.72
2023-03-22T14:02:45.952Z,18.68
2023-03-22T14:05:18.828Z,18.62
2023-03-22T14:07:52.061Z,18.55
2023-03-22T14:10:41.775Z,18.50
2023-03-22T14:13:38.446Z,18.48
2023-03-22T14:16:34.733Z,18.49
2023-03-22T14:19:07.158Z,18.47
2023-03-22T14:21:39.892Z,18.38
